<?xml version="1.0" encoding="UTF-8" standalone="no" ?>
<gpx xmlns="http://www.topografix.com/GPX/1/1" xmlns:xsi="http://www.w3.org/2001/XMLSchema-instance" xsi:schemaLocation="http://www.topografix.com/GPX/1/1 http://www.topografix.com/GPX/1/1/gpx.xsd" version="1.1" creator="VisuGPX - https://www.visugpx.com">
  <metadata>
    <name>Saint-Laurent Mairie- Ste Anne- Plassard</name>
  </metadata>
  <trk>
    <name><![CDATA[14909053-RPS- Mairie- Ste Anne- Plassard]]></name>
    <trkseg>
      <trkpt lat="46.95881" lon="-0.88682">
        <ele>112</ele>
        <time>2022-06-07T09:00:45Z</time>
      </trkpt>
      <trkpt lat="46.95863" lon="-0.88694">
        <ele>111</ele>
        <time>2022-06-07T09:01:01Z</time>
      </trkpt>
      <trkpt lat="46.95855" lon="-0.88744">
        <ele>111</ele>
        <time>2022-06-07T09:01:29Z</time>
      </trkpt>
      <trkpt lat="46.95837" lon="-0.88772">
        <ele>112</ele>
        <time>2022-06-07T09:01:50Z</time>
      </trkpt>
      <trkpt lat="46.95824" lon="-0.88821">
        <ele>114</ele>
        <time>2022-06-07T09:02:19Z</time>
      </trkpt>
      <trkpt lat="46.95809" lon="-0.88827">
        <ele>115</ele>
        <time>2022-06-07T09:02:31Z</time>
      </trkpt>
      <trkpt lat="46.95767" lon="-0.88808">
        <ele>115</ele>
        <time>2022-06-07T09:03:06Z</time>
      </trkpt>
      <trkpt lat="46.95762" lon="-0.88826">
        <ele>115</ele>
        <time>2022-06-07T09:03:17Z</time>
      </trkpt>
      <trkpt lat="46.95756" lon="-0.88842">
        <ele>115</ele>
        <time>2022-06-07T09:03:27Z</time>
      </trkpt>
      <trkpt lat="46.95705" lon="-0.88904">
        <ele>118</ele>
        <time>2022-06-07T09:04:20Z</time>
      </trkpt>
      <trkpt lat="46.95719" lon="-0.88938">
        <ele>120</ele>
        <time>2022-06-07T09:04:42Z</time>
      </trkpt>
      <trkpt lat="46.95691" lon="-0.88944">
        <ele>121</ele>
        <time>2022-06-07T09:05:04Z</time>
      </trkpt>
      <trkpt lat="46.95668" lon="-0.88993">
        <ele>125</ele>
        <time>2022-06-07T09:05:37Z</time>
      </trkpt>
      <trkpt lat="46.95606" lon="-0.89087">
        <ele>130</ele>
        <time>2022-06-07T09:06:48Z</time>
      </trkpt>
      <trkpt lat="46.95575" lon="-0.89082">
        <ele>131</ele>
        <time>2022-06-07T09:07:13Z</time>
      </trkpt>
      <trkpt lat="46.95515" lon="-0.89024">
        <ele>135</ele>
        <time>2022-06-07T09:08:11Z</time>
      </trkpt>
      <trkpt lat="46.95509" lon="-0.89003">
        <ele>136</ele>
        <time>2022-06-07T09:08:23Z</time>
      </trkpt>
      <trkpt lat="46.95451" lon="-0.88945">
        <ele>135</ele>
        <time>2022-06-07T09:09:19Z</time>
      </trkpt>
      <trkpt lat="46.95442" lon="-0.8897">
        <ele>137</ele>
        <time>2022-06-07T09:09:35Z</time>
      </trkpt>
      <trkpt lat="46.95391" lon="-0.88937">
        <ele>135</ele>
        <time>2022-06-07T09:10:20Z</time>
      </trkpt>
      <trkpt lat="46.95345" lon="-0.88976">
        <ele>134</ele>
        <time>2022-06-07T09:11:02Z</time>
      </trkpt>
      <trkpt lat="46.95296" lon="-0.89036">
        <ele>139</ele>
        <time>2022-06-07T09:11:53Z</time>
      </trkpt>
      <trkpt lat="46.95283" lon="-0.89028">
        <ele>139</ele>
        <time>2022-06-07T09:12:05Z</time>
      </trkpt>
      <trkpt lat="46.95278" lon="-0.89023">
        <ele>139</ele>
        <time>2022-06-07T09:12:09Z</time>
      </trkpt>
      <trkpt lat="46.95265" lon="-0.89018">
        <ele>139</ele>
        <time>2022-06-07T09:12:20Z</time>
      </trkpt>
      <trkpt lat="46.95281" lon="-0.88975">
        <ele>137</ele>
        <time>2022-06-07T09:12:47Z</time>
      </trkpt>
      <trkpt lat="46.95276" lon="-0.88937">
        <ele>138</ele>
        <time>2022-06-07T09:13:08Z</time>
      </trkpt>
      <trkpt lat="46.95243" lon="-0.89021">
        <ele>141</ele>
        <time>2022-06-07T09:14:01Z</time>
      </trkpt>
      <trkpt lat="46.95248" lon="-0.88959">
        <ele>140</ele>
        <time>2022-06-07T09:14:35Z</time>
      </trkpt>
      <trkpt lat="46.95227" lon="-0.89006">
        <ele>142</ele>
        <time>2022-06-07T09:15:06Z</time>
      </trkpt>
      <trkpt lat="46.9521" lon="-0.89031">
        <ele>145</ele>
        <time>2022-06-07T09:15:25Z</time>
      </trkpt>
      <trkpt lat="46.95204" lon="-0.8903">
        <ele>146</ele>
        <time>2022-06-07T09:15:30Z</time>
      </trkpt>
      <trkpt lat="46.952" lon="-0.89042">
        <ele>147</ele>
        <time>2022-06-07T09:15:37Z</time>
      </trkpt>
      <trkpt lat="46.952" lon="-0.89067">
        <ele>147</ele>
        <time>2022-06-07T09:15:51Z</time>
      </trkpt>
      <trkpt lat="46.95213" lon="-0.891">
        <ele>147</ele>
        <time>2022-06-07T09:16:12Z</time>
      </trkpt>
      <trkpt lat="46.95222" lon="-0.89133">
        <ele>147</ele>
        <time>2022-06-07T09:16:31Z</time>
      </trkpt>
      <trkpt lat="46.95224" lon="-0.89166">
        <ele>147</ele>
        <time>2022-06-07T09:16:49Z</time>
      </trkpt>
      <trkpt lat="46.95216" lon="-0.89272">
        <ele>151</ele>
        <time>2022-06-07T09:17:48Z</time>
      </trkpt>
      <trkpt lat="46.95218" lon="-0.89306">
        <ele>152</ele>
        <time>2022-06-07T09:18:06Z</time>
      </trkpt>
      <trkpt lat="46.95228" lon="-0.89331">
        <ele>152</ele>
        <time>2022-06-07T09:18:22Z</time>
      </trkpt>
      <trkpt lat="46.95207" lon="-0.89338">
        <ele>153</ele>
        <time>2022-06-07T09:18:39Z</time>
      </trkpt>
      <trkpt lat="46.95199" lon="-0.8932">
        <ele>153</ele>
        <time>2022-06-07T09:18:51Z</time>
      </trkpt>
      <trkpt lat="46.95186" lon="-0.89262">
        <ele>153</ele>
        <time>2022-06-07T09:19:24Z</time>
      </trkpt>
      <trkpt lat="46.95194" lon="-0.89213">
        <ele>151</ele>
        <time>2022-06-07T09:19:52Z</time>
      </trkpt>
      <trkpt lat="46.95196" lon="-0.89185">
        <ele>151</ele>
        <time>2022-06-07T09:20:07Z</time>
      </trkpt>
      <trkpt lat="46.95192" lon="-0.89157">
        <ele>150</ele>
        <time>2022-06-07T09:20:23Z</time>
      </trkpt>
      <trkpt lat="46.95183" lon="-0.8913">
        <ele>150</ele>
        <time>2022-06-07T09:20:39Z</time>
      </trkpt>
      <trkpt lat="46.95158" lon="-0.89094">
        <ele>152</ele>
        <time>2022-06-07T09:21:07Z</time>
      </trkpt>
      <trkpt lat="46.95145" lon="-0.89056">
        <ele>152</ele>
        <time>2022-06-07T09:21:31Z</time>
      </trkpt>
      <trkpt lat="46.95084" lon="-0.88966">
        <ele>155</ele>
        <time>2022-06-07T09:22:40Z</time>
      </trkpt>
      <trkpt lat="46.95066" lon="-0.88955">
        <ele>155</ele>
        <time>2022-06-07T09:22:56Z</time>
      </trkpt>
      <trkpt lat="46.95047" lon="-0.88948">
        <ele>155</ele>
        <time>2022-06-07T09:23:11Z</time>
      </trkpt>
      <trkpt lat="46.95022" lon="-0.88954">
        <ele>155</ele>
        <time>2022-06-07T09:23:32Z</time>
      </trkpt>
      <trkpt lat="46.9499" lon="-0.88965">
        <ele>156</ele>
        <time>2022-06-07T09:23:58Z</time>
      </trkpt>
      <trkpt lat="46.94984" lon="-0.88941">
        <ele>156</ele>
        <time>2022-06-07T09:24:12Z</time>
      </trkpt>
      <trkpt lat="46.95" lon="-0.88926">
        <ele>155</ele>
        <time>2022-06-07T09:24:27Z</time>
      </trkpt>
      <trkpt lat="46.95027" lon="-0.88869">
        <ele>154</ele>
        <time>2022-06-07T09:25:05Z</time>
      </trkpt>
      <trkpt lat="46.9506" lon="-0.8884">
        <ele>152</ele>
        <time>2022-06-07T09:25:36Z</time>
      </trkpt>
      <trkpt lat="46.95107" lon="-0.88797">
        <ele>148</ele>
        <time>2022-06-07T09:26:20Z</time>
      </trkpt>
      <trkpt lat="46.95117" lon="-0.88802">
        <ele>148</ele>
        <time>2022-06-07T09:26:29Z</time>
      </trkpt>
      <trkpt lat="46.95135" lon="-0.88779">
        <ele>146</ele>
        <time>2022-06-07T09:26:48Z</time>
      </trkpt>
      <trkpt lat="46.95148" lon="-0.88742">
        <ele>141</ele>
        <time>2022-06-07T09:27:11Z</time>
      </trkpt>
      <trkpt lat="46.95148" lon="-0.88695">
        <ele>135</ele>
        <time>2022-06-07T09:27:36Z</time>
      </trkpt>
      <trkpt lat="46.95145" lon="-0.8868">
        <ele>133</ele>
        <time>2022-06-07T09:27:45Z</time>
      </trkpt>
      <trkpt lat="46.95133" lon="-0.88672">
        <ele>134</ele>
        <time>2022-06-07T09:27:55Z</time>
      </trkpt>
      <trkpt lat="46.95131" lon="-0.88661">
        <ele>133</ele>
        <time>2022-06-07T09:28:02Z</time>
      </trkpt>
      <trkpt lat="46.95122" lon="-0.88659">
        <ele>134</ele>
        <time>2022-06-07T09:28:09Z</time>
      </trkpt>
      <trkpt lat="46.95063" lon="-0.88526">
        <ele>128</ele>
        <time>2022-06-07T09:29:35Z</time>
      </trkpt>
      <trkpt lat="46.95039" lon="-0.88471">
        <ele>128</ele>
        <time>2022-06-07T09:30:11Z</time>
      </trkpt>
      <trkpt lat="46.95022" lon="-0.88436">
        <ele>129</ele>
        <time>2022-06-07T09:30:35Z</time>
      </trkpt>
      <trkpt lat="46.94991" lon="-0.88372">
        <ele>126</ele>
        <time>2022-06-07T09:31:18Z</time>
      </trkpt>
      <trkpt lat="46.9497" lon="-0.88349">
        <ele>126</ele>
        <time>2022-06-07T09:31:39Z</time>
      </trkpt>
      <trkpt lat="46.94937" lon="-0.8832">
        <ele>127</ele>
        <time>2022-06-07T09:32:09Z</time>
      </trkpt>
      <trkpt lat="46.94882" lon="-0.88303">
        <ele>128</ele>
        <time>2022-06-07T09:32:54Z</time>
      </trkpt>
      <trkpt lat="46.94854" lon="-0.88283">
        <ele>126</ele>
        <time>2022-06-07T09:33:19Z</time>
      </trkpt>
      <trkpt lat="46.94806" lon="-0.88229">
        <ele>124</ele>
        <time>2022-06-07T09:34:08Z</time>
      </trkpt>
      <trkpt lat="46.94764" lon="-0.88232">
        <ele>127</ele>
        <time>2022-06-07T09:34:41Z</time>
      </trkpt>
      <trkpt lat="46.94628" lon="-0.88262">
        <ele>130</ele>
        <time>2022-06-07T09:36:32Z</time>
      </trkpt>
      <trkpt lat="46.94608" lon="-0.88253">
        <ele>130</ele>
        <time>2022-06-07T09:36:48Z</time>
      </trkpt>
      <trkpt lat="46.94601" lon="-0.88259">
        <ele>131</ele>
        <time>2022-06-07T09:36:55Z</time>
      </trkpt>
      <trkpt lat="46.94565" lon="-0.88328">
        <ele>142</ele>
        <time>2022-06-07T09:37:42Z</time>
      </trkpt>
      <trkpt lat="46.94535" lon="-0.88346">
        <ele>144</ele>
        <time>2022-06-07T09:38:08Z</time>
      </trkpt>
      <trkpt lat="46.94484" lon="-0.88357">
        <ele>146</ele>
        <time>2022-06-07T09:38:49Z</time>
      </trkpt>
      <trkpt lat="46.94401" lon="-0.88326">
        <ele>149</ele>
        <time>2022-06-07T09:39:58Z</time>
      </trkpt>
      <trkpt lat="46.94382" lon="-0.88307">
        <ele>149</ele>
        <time>2022-06-07T09:40:16Z</time>
      </trkpt>
      <trkpt lat="46.94367" lon="-0.88283">
        <ele>149</ele>
        <time>2022-06-07T09:40:34Z</time>
      </trkpt>
      <trkpt lat="46.94343" lon="-0.88216">
        <ele>142</ele>
        <time>2022-06-07T09:41:16Z</time>
      </trkpt>
      <trkpt lat="46.94349" lon="-0.88196">
        <ele>136</ele>
        <time>2022-06-07T09:41:28Z</time>
      </trkpt>
      <trkpt lat="46.94319" lon="-0.88146">
        <ele>134</ele>
        <time>2022-06-07T09:42:04Z</time>
      </trkpt>
      <trkpt lat="46.94328" lon="-0.88118">
        <ele>127</ele>
        <time>2022-06-07T09:42:21Z</time>
      </trkpt>
      <trkpt lat="46.94344" lon="-0.88096">
        <ele>123</ele>
        <time>2022-06-07T09:42:38Z</time>
      </trkpt>
      <trkpt lat="46.94348" lon="-0.88067">
        <ele>122</ele>
        <time>2022-06-07T09:42:55Z</time>
      </trkpt>
      <trkpt lat="46.94342" lon="-0.8804">
        <ele>123</ele>
        <time>2022-06-07T09:43:10Z</time>
      </trkpt>
      <trkpt lat="46.94341" lon="-0.88021">
        <ele>124</ele>
        <time>2022-06-07T09:43:21Z</time>
      </trkpt>
      <trkpt lat="46.94343" lon="-0.88003">
        <ele>125</ele>
        <time>2022-06-07T09:43:31Z</time>
      </trkpt>
      <trkpt lat="46.94355" lon="-0.87982">
        <ele>128</ele>
        <time>2022-06-07T09:43:46Z</time>
      </trkpt>
      <trkpt lat="46.94386" lon="-0.88018">
        <ele>128</ele>
        <time>2022-06-07T09:44:17Z</time>
      </trkpt>
      <trkpt lat="46.94403" lon="-0.88048">
        <ele>126</ele>
        <time>2022-06-07T09:44:38Z</time>
      </trkpt>
      <trkpt lat="46.94428" lon="-0.88024">
        <ele>131</ele>
        <time>2022-06-07T09:45:02Z</time>
      </trkpt>
      <trkpt lat="46.94439" lon="-0.8803">
        <ele>132</ele>
        <time>2022-06-07T09:45:12Z</time>
      </trkpt>
      <trkpt lat="46.94443" lon="-0.88044">
        <ele>130</ele>
        <time>2022-06-07T09:45:20Z</time>
      </trkpt>
      <trkpt lat="46.94452" lon="-0.88058">
        <ele>129</ele>
        <time>2022-06-07T09:45:31Z</time>
      </trkpt>
      <trkpt lat="46.94468" lon="-0.88062">
        <ele>129</ele>
        <time>2022-06-07T09:45:44Z</time>
      </trkpt>
      <trkpt lat="46.94481" lon="-0.88076">
        <ele>127</ele>
        <time>2022-06-07T09:45:57Z</time>
      </trkpt>
      <trkpt lat="46.94491" lon="-0.88073">
        <ele>128</ele>
        <time>2022-06-07T09:46:05Z</time>
      </trkpt>
      <trkpt lat="46.94478" lon="-0.88061">
        <ele>130</ele>
        <time>2022-06-07T09:46:17Z</time>
      </trkpt>
      <trkpt lat="46.94477" lon="-0.8805">
        <ele>132</ele>
        <time>2022-06-07T09:46:23Z</time>
      </trkpt>
      <trkpt lat="46.94485" lon="-0.88039">
        <ele>134</ele>
        <time>2022-06-07T09:46:32Z</time>
      </trkpt>
      <trkpt lat="46.945" lon="-0.8804">
        <ele>135</ele>
        <time>2022-06-07T09:46:44Z</time>
      </trkpt>
      <trkpt lat="46.94524" lon="-0.88032">
        <ele>135</ele>
        <time>2022-06-07T09:47:04Z</time>
      </trkpt>
      <trkpt lat="46.94545" lon="-0.88021">
        <ele>136</ele>
        <time>2022-06-07T09:47:21Z</time>
      </trkpt>
      <trkpt lat="46.94553" lon="-0.88006">
        <ele>138</ele>
        <time>2022-06-07T09:47:32Z</time>
      </trkpt>
      <trkpt lat="46.94517" lon="-0.87973">
        <ele>144</ele>
        <time>2022-06-07T09:48:06Z</time>
      </trkpt>
      <trkpt lat="46.94509" lon="-0.87956">
        <ele>146</ele>
        <time>2022-06-07T09:48:17Z</time>
      </trkpt>
      <trkpt lat="46.94516" lon="-0.87885">
        <ele>151</ele>
        <time>2022-06-07T09:48:56Z</time>
      </trkpt>
      <trkpt lat="46.9455" lon="-0.87916">
        <ele>147</ele>
        <time>2022-06-07T09:49:28Z</time>
      </trkpt>
      <trkpt lat="46.94562" lon="-0.87939">
        <ele>144</ele>
        <time>2022-06-07T09:49:44Z</time>
      </trkpt>
      <trkpt lat="46.94578" lon="-0.88011">
        <ele>136</ele>
        <time>2022-06-07T09:50:26Z</time>
      </trkpt>
      <trkpt lat="46.94616" lon="-0.88007">
        <ele>131</ele>
        <time>2022-06-07T09:50:56Z</time>
      </trkpt>
      <trkpt lat="46.94637" lon="-0.88016">
        <ele>128</ele>
        <time>2022-06-07T09:51:14Z</time>
      </trkpt>
      <trkpt lat="46.94658" lon="-0.88023">
        <ele>124</ele>
        <time>2022-06-07T09:51:31Z</time>
      </trkpt>
      <trkpt lat="46.94659" lon="-0.88032">
        <ele>124</ele>
        <time>2022-06-07T09:51:36Z</time>
      </trkpt>
      <trkpt lat="46.9468" lon="-0.88038">
        <ele>122</ele>
        <time>2022-06-07T09:51:53Z</time>
      </trkpt>
      <trkpt lat="46.9471" lon="-0.8802">
        <ele>121</ele>
        <time>2022-06-07T09:52:19Z</time>
      </trkpt>
      <trkpt lat="46.94727" lon="-0.88022">
        <ele>120</ele>
        <time>2022-06-07T09:52:33Z</time>
      </trkpt>
      <trkpt lat="46.9474" lon="-0.88049">
        <ele>118</ele>
        <time>2022-06-07T09:52:51Z</time>
      </trkpt>
      <trkpt lat="46.94759" lon="-0.88063">
        <ele>117</ele>
        <time>2022-06-07T09:53:08Z</time>
      </trkpt>
      <trkpt lat="46.9478" lon="-0.88065">
        <ele>117</ele>
        <time>2022-06-07T09:53:25Z</time>
      </trkpt>
      <trkpt lat="46.94809" lon="-0.88053">
        <ele>116</ele>
        <time>2022-06-07T09:53:49Z</time>
      </trkpt>
      <trkpt lat="46.94843" lon="-0.88064">
        <ele>116</ele>
        <time>2022-06-07T09:54:17Z</time>
      </trkpt>
      <trkpt lat="46.9494" lon="-0.88138">
        <ele>116</ele>
        <time>2022-06-07T09:55:44Z</time>
      </trkpt>
      <trkpt lat="46.94975" lon="-0.8814">
        <ele>117</ele>
        <time>2022-06-07T09:56:12Z</time>
      </trkpt>
      <trkpt lat="46.94996" lon="-0.88127">
        <ele>119</ele>
        <time>2022-06-07T09:56:30Z</time>
      </trkpt>
      <trkpt lat="46.95066" lon="-0.88209">
        <ele>123</ele>
        <time>2022-06-07T09:57:42Z</time>
      </trkpt>
      <trkpt lat="46.95092" lon="-0.88272">
        <ele>123</ele>
        <time>2022-06-07T09:58:22Z</time>
      </trkpt>
      <trkpt lat="46.95128" lon="-0.8833">
        <ele>122</ele>
        <time>2022-06-07T09:59:05Z</time>
      </trkpt>
      <trkpt lat="46.95171" lon="-0.88363">
        <ele>122</ele>
        <time>2022-06-07T09:59:44Z</time>
      </trkpt>
      <trkpt lat="46.95194" lon="-0.88374">
        <ele>121</ele>
        <time>2022-06-07T10:00:04Z</time>
      </trkpt>
      <trkpt lat="46.95274" lon="-0.88396">
        <ele>118</ele>
        <time>2022-06-07T10:01:09Z</time>
      </trkpt>
      <trkpt lat="46.95322" lon="-0.88374">
        <ele>117</ele>
        <time>2022-06-07T10:01:49Z</time>
      </trkpt>
      <trkpt lat="46.95415" lon="-0.88387">
        <ele>112</ele>
        <time>2022-06-07T10:03:04Z</time>
      </trkpt>
      <trkpt lat="46.95449" lon="-0.88373">
        <ele>112</ele>
        <time>2022-06-07T10:03:32Z</time>
      </trkpt>
      <trkpt lat="46.95505" lon="-0.88324">
        <ele>116</ele>
        <time>2022-06-07T10:04:24Z</time>
      </trkpt>
      <trkpt lat="46.95535" lon="-0.8832">
        <ele>117</ele>
        <time>2022-06-07T10:04:48Z</time>
      </trkpt>
      <trkpt lat="46.95576" lon="-0.88329">
        <ele>117</ele>
        <time>2022-06-07T10:05:22Z</time>
      </trkpt>
      <trkpt lat="46.95489" lon="-0.88589">
        <ele>118</ele>
        <time>2022-06-07T10:08:00Z</time>
      </trkpt>
      <trkpt lat="46.95513" lon="-0.88611">
        <ele>119</ele>
        <time>2022-06-07T10:08:23Z</time>
      </trkpt>
      <trkpt lat="46.9552" lon="-0.88603">
        <ele>118</ele>
        <time>2022-06-07T10:08:30Z</time>
      </trkpt>
      <trkpt lat="46.95607" lon="-0.88732">
        <ele>119</ele>
        <time>2022-06-07T10:10:09Z</time>
      </trkpt>
      <trkpt lat="46.95701" lon="-0.88899">
        <ele>118</ele>
        <time>2022-06-07T10:12:07Z</time>
      </trkpt>
      <trkpt lat="46.95704" lon="-0.88905">
        <ele>119</ele>
        <time>2022-06-07T10:12:11Z</time>
      </trkpt>
      <trkpt lat="46.95715" lon="-0.88892">
        <ele>118</ele>
        <time>2022-06-07T10:12:22Z</time>
      </trkpt>
      <trkpt lat="46.95732" lon="-0.88871">
        <ele>117</ele>
        <time>2022-06-07T10:12:40Z</time>
      </trkpt>
      <trkpt lat="46.95764" lon="-0.88814">
        <ele>115</ele>
        <time>2022-06-07T10:13:21Z</time>
      </trkpt>
      <trkpt lat="46.9578" lon="-0.88813">
        <ele>114</ele>
        <time>2022-06-07T10:13:33Z</time>
      </trkpt>
      <trkpt lat="46.95817" lon="-0.88827">
        <ele>115</ele>
        <time>2022-06-07T10:14:04Z</time>
      </trkpt>
      <trkpt lat="46.95835" lon="-0.88784">
        <ele>113</ele>
        <time>2022-06-07T10:14:32Z</time>
      </trkpt>
      <trkpt lat="46.95851" lon="-0.88752">
        <ele>111</ele>
        <time>2022-06-07T10:14:53Z</time>
      </trkpt>
      <trkpt lat="46.95861" lon="-0.88701">
        <ele>111</ele>
        <time>2022-06-07T10:15:22Z</time>
      </trkpt>
      <trkpt lat="46.95881" lon="-0.88682">
        <ele>112</ele>
        <time>2022-06-07T10:15:41Z</time>
      </trkpt>
    </trkseg>
  </trk>
</gpx>